Time;durP1;ratioP1;P1;durP2;ratioP2;P2;SDS_P1;SDS_P2;PMS_P1;PMS_P2;Temp;Humidity;BMP_temperature;BMP_pressure;BME280_temperature;BME280_humidity;BME280_pressure;Samples;Min_cycle;Max_cycle;Signal;HPM_P1;HPM_P2
2023/10/21 00:02:16;;;;;;;6.65;1.20;;;18.00;99.90;;;;;;5036008;28;20029;-69
2023/10/21 00:04:42;;;;;;;9.38;1.30;;;18.00;99.90;;;;;;5035855;28;20061;-69
2023/10/21 00:07:07;;;;;;;8.45;1.77;;;17.90;99.90;;;;;;5036033;28;20020;-70
2023/10/21 00:09:34;;;;;;;5.13;1.08;;;17.90;99.90;;;;;;5036154;28;20033;-69
2023/10/21 00:12:04;;;;;;;10.05;1.23;;;17.90;99.90;;;;;;5035773;28;20370;-70
2023/10/21 00:14:30;;;;;;;9.55;1.30;;;17.90;99.90;;;;;;5035700;28;20021;-69
2023/10/21 00:16:56;;;;;;;6.07;1.20;;;17.90;99.90;;;;;;5036009;28;20366;-69
2023/10/21 00:19:22;;;;;;;5.93;1.38;;;17.90;99.90;;;;;;5035549;28;20087;-69
2023/10/21 00:21:48;;;;;;;6.00;1.30;;;17.90;99.90;;;;;;5035718;28;20033;-70
2023/10/21 00:24:14;;;;;;;6.07;1.30;;;17.90;99.90;;;;;;5035518;28;20041;-70
2023/10/21 00:26:47;;;;;;;6.50;1.10;;;17.90;99.90;;;;;;5035501;28;20121;-69
2023/10/21 00:29:19;;;;;;;6.35;1.20;;;17.90;99.90;;;;;;5035323;28;20025;-70
2023/10/21 00:31:48;;;;;;;4.80;1.23;;;17.80;99.90;;;;;;5035632;28;20037;-70
2023/10/21 00:34:14;;;;;;;6.25;1.13;;;17.90;99.90;;;;;;5035334;28;20454;-70
2023/10/21 00:36:42;;;;;;;5.13;1.40;;;17.80;99.90;;;;;;5035442;28;20445;-70
2023/10/21 00:39:11;;;;;;;3.22;0.95;;;17.90;99.90;;;;;;5035541;28;20018;-70
2023/10/21 00:41:39;;;;;;;9.30;1.23;;;17.80;99.90;;;;;;5035610;28;20029;-70
2023/10/21 00:44:08;;;;;;;8.93;2.17;;;17.80;99.90;;;;;;5035427;28;20071;-70
2023/10/21 00:46:42;;;;;;;7.22;1.73;;;17.80;99.90;;;;;;5035387;28;20022;-70
2023/10/21 00:49:12;;;;;;;9.20;1.23;;;17.80;99.90;;;;;;5035456;28;20026;-70
2023/10/21 00:51:41;;;;;;;4.95;1.50;;;17.80;99.90;;;;;;5032886;28;20037;-70
2023/10/21 00:54:12;;;;;;;3.72;1.10;;;17.80;99.90;;;;;;5034949;28;20032;-69
2023/10/21 00:56:39;;;;;;;7.80;1.30;;;17.80;99.90;;;;;;5035307;28;20025;-70
2023/10/21 00:59:05;;;;;;;5.90;1.05;;;17.80;99.90;;;;;;5032723;28;20022;-70
2023/10/21 01:01:31;;;;;;;9.90;1.50;;;17.80;99.90;;;;;;5032096;28;20036;-70
2023/10/21 01:03:57;;;;;;;7.55;1.50;;;17.80;99.90;;;;;;5032478;28;20112;-70
2023/10/21 01:06:23;;;;;;;7.68;1.23;;;17.80;99.90;;;;;;5034497;28;20026;-69
2023/10/21 01:08:49;;;;;;;5.82;1.10;;;17.80;99.90;;;;;;5035081;28;20413;-70
2023/10/21 01:11:18;;;;;;;4.00;1.20;;;17.80;99.90;;;;;;5034742;28;20041;-70
2023/10/21 01:13:45;;;;;;;2.47;1.00;;;17.80;99.90;;;;;;5034370;28;20393;-70
2023/10/21 01:16:11;;;;;;;3.15;0.80;;;17.80;99.90;;;;;;5034898;28;20026;-70
2023/10/21 01:18:42;;;;;;;6.85;1.17;;;17.70;99.90;;;;;;5034722;28;20027;-70
2023/10/21 01:21:08;;;;;;;4.53;1.10;;;17.70;99.90;;;;;;5034482;28;20735;-70
2023/10/21 01:23:41;;;;;;;8.55;1.20;;;17.70;99.90;;;;;;5034604;28;20092;-70
2023/10/21 01:26:07;;;;;;;2.92;0.98;;;17.70;99.90;;;;;;5034375;28;20566;-70
2023/10/21 01:28:33;;;;;;;4.25;0.98;;;17.70;99.90;;;;;;5033812;28;20097;-70
2023/10/21 01:31:02;;;;;;;6.50;1.13;;;17.70;99.90;;;;;;5034289;28;20381;-70
2023/10/21 01:33:31;;;;;;;4.80;1.20;;;17.70;99.90;;;;;;5032774;28;20091;-70
2023/10/21 01:36:00;;;;;;;6.07;1.30;;;17.70;99.90;;;;;;5034068;28;20091;-70
2023/10/21 01:38:28;;;;;;;5.88;1.20;;;17.70;99.90;;;;;;5034439;28;20021;-70
2023/10/21 01:40:54;;;;;;;5.18;1.73;;;17.70;99.90;;;;;;5034138;28;20381;-70
2023/10/21 01:43:20;;;;;;;2.03;0.85;;;17.70;99.90;;;;;;5033958;28;20022;-70
2023/10/21 01:45:46;;;;;;;5.43;1.02;;;17.70;99.90;;;;;;5033978;28;20071;-70
2023/10/21 01:48:12;;;;;;;7.22;0.95;;;17.70;99.90;;;;;;5034379;28;20064;-69
2023/10/21 01:50:38;;;;;;;5.60;1.10;;;17.70;99.90;;;;;;5034200;28;20060;-69
2023/10/21 01:53:05;;;;;;;6.20;1.40;;;17.60;99.90;;;;;;5033356;28;20387;-70
2023/10/21 01:55:31;;;;;;;4.25;1.67;;;17.60;99.90;;;;;;5033918;28;20522;-70
2023/10/21 01:57:57;;;;;;;6.05;1.27;;;17.60;99.90;;;;;;5034208;28;20018;-70
2023/10/21 02:00:23;;;;;;;4.20;1.30;;;17.60;99.90;;;;;;5034036;28;20072;-71
2023/10/21 02:02:51;;;;;;;2.85;0.82;;;17.60;99.90;;;;;;5033738;28;20096;-70
2023/10/21 02:05:17;;;;;;;3.58;1.40;;;17.60;99.90;;;;;;5032695;28;20021;-69
2023/10/21 02:07:43;;;;;;;9.15;1.20;;;17.60;99.90;;;;;;5033652;28;20025;-69
2023/10/21 02:10:10;;;;;;;3.05;0.98;;;17.60;99.90;;;;;;5033420;28;20029;-70
2023/10/21 02:12:36;;;;;;;10.32;1.40;;;17.60;99.90;;;;;;5033830;28;20030;-71
2023/10/21 02:15:02;;;;;;;9.50;0.95;;;17.60;99.90;;;;;;5033581;28;20029;-70
2023/10/21 02:17:28;;;;;;;13.90;1.27;;;17.60;99.90;;;;;;5033474;28;20028;-69
2023/10/21 02:19:57;;;;;;;4.40;1.17;;;17.60;99.90;;;;;;5033371;28;20025;-70
2023/10/21 02:22:30;;;;;;;4.22;1.10;;;17.60;99.90;;;;;;5033633;28;20072;-69
2023/10/21 02:24:56;;;;;;;3.55;1.00;;;17.50;99.90;;;;;;5032395;28;20033;-70
2023/10/21 02:27:24;;;;;;;5.18;1.00;;;17.50;99.90;;;;;;5033799;28;20044;-70
2023/10/21 02:29:53;;;;;;;4.15;1.00;;;17.50;99.90;;;;;;5033417;28;20079;-70
2023/10/21 02:32:19;;;;;;;8.05;1.15;;;17.50;99.90;;;;;;5033568;28;20026;-70
2023/10/21 02:34:45;;;;;;;5.80;0.90;;;17.50;99.90;;;;;;5033248;28;20501;-69
2023/10/21 02:37:11;;;;;;;5.32;1.10;;;17.50;99.90;;;;;;5033391;28;20028;-69
2023/10/21 02:39:37;;;;;;;6.90;0.90;;;17.50;99.90;;;;;;5033337;28;20422;-70
2023/10/21 02:42:12;;;;;;;3.80;0.90;;;17.40;99.90;;;;;;5033193;28;20021;-70
2023/10/21 02:44:38;;;;;;;4.28;1.08;;;17.40;99.90;;;;;;5032995;28;20037;-69
2023/10/21 02:47:04;;;;;;;1.92;0.93;;;17.40;99.90;;;;;;5033226;28;20017;-70
2023/10/21 02:49:30;;;;;;;3.50;0.82;;;17.40;99.90;;;;;;5032864;28;20087;-69
2023/10/21 02:51:56;;;;;;;9.15;1.30;;;17.40;99.90;;;;;;5033067;28;20040;-69
2023/10/21 02:54:25;;;;;;;7.03;1.20;;;17.30;99.90;;;;;;5033254;28;20025;-70
2023/10/21 02:56:51;;;;;;;7.78;1.10;;;17.40;99.90;;;;;;5032942;28;20449;-70
2023/10/21 02:59:17;;;;;;;6.68;0.88;;;17.30;99.90;;;;;;5032592;28;20361;-69
2023/10/21 03:01:48;;;;;;;5.60;1.00;;;17.30;99.90;;;;;;5033024;28;20026;-70
2023/10/21 03:04:14;;;;;;;4.68;1.02;;;17.30;99.90;;;;;;5032856;28;20025;-70
2023/10/21 03:06:40;;;;;;;4.25;1.17;;;17.30;99.90;;;;;;5032941;28;20079;-70
2023/10/21 03:09:06;;;;;;;5.35;1.52;;;17.30;99.90;;;;;;5032549;28;20096;-70
2023/10/21 03:11:32;;;;;;;4.43;1.17;;;17.30;99.90;;;;;;5032732;28;20478;-70
2023/10/21 03:13:58;;;;;;;5.43;1.20;;;17.30;99.90;;;;;;5032381;28;20028;-70
2023/10/21 03:16:24;;;;;;;4.47;1.70;;;17.30;99.90;;;;;;5032806;28;20397;-70
2023/10/21 03:18:51;;;;;;;3.60;0.82;;;17.30;99.90;;;;;;5032256;28;20035;-70
2023/10/21 03:21:26;;;;;;;7.43;1.10;;;17.30;99.90;;;;;;5032534;28;20026;-69
2023/10/21 03:23:52;;;;;;;7.13;1.13;;;17.40;99.90;;;;;;5032680;28;20405;-70
2023/10/21 03:26:18;;;;;;;3.28;1.08;;;17.30;99.90;;;;;;5032757;28;20108;-70
2023/10/21 03:28:44;;;;;;;4.57;1.15;;;17.30;99.90;;;;;;5029728;28;20021;-69
2023/10/21 03:31:10;;;;;;;10.35;1.17;;;17.40;99.90;;;;;;5030078;28;20038;-70
2023/10/21 03:33:35;;;;;;;3.25;0.82;;;17.30;99.90;;;;;;5032316;28;20048;-70
2023/10/21 03:36:06;;;;;;;4.53;0.98;;;17.30;99.90;;;;;;5032602;28;20029;-69
2023/10/21 03:38:32;;;;;;;3.95;1.20;;;17.30;99.90;;;;;;5032420;28;20068;-69
2023/10/21 03:41:11;;;;;;;3.28;0.95;;;17.30;99.90;;;;;;5031125;28;20046;-70
2023/10/21 03:43:37;;;;;;;4.38;1.20;;;17.30;99.90;;;;;;5032637;28;20128;-70
2023/10/21 03:46:08;;;;;;;3.70;1.10;;;17.30;99.90;;;;;;5032740;28;20029;-69
2023/10/21 03:48:35;;;;;;;5.60;1.25;;;17.30;99.90;;;;;;5032083;28;20022;-70
2023/10/21 03:51:10;;;;;;;5.88;1.20;;;17.30;99.90;;;;;;5032176;28;20033;-70
2023/10/21 03:53:36;;;;;;;2.78;1.25;;;17.30;99.90;;;;;;5028882;28;20424;-70
2023/10/21 03:56:02;;;;;;;7.03;1.40;;;17.30;99.90;;;;;;5029629;28;20512;-69
2023/10/21 03:58:32;;;;;;;10.55;2.70;;;17.30;99.90;;;;;;5030382;28;20025;-70
2023/10/21 04:00:57;;;;;;;5.45;2.33;;;17.30;99.90;;;;;;5032349;28;20029;-70
2023/10/21 04:03:27;;;;;;;8.65;1.88;;;17.30;99.90;;;;;;5032423;28;20029;-70
2023/10/21 04:05:53;;;;;;;6.32;1.60;;;17.30;99.90;;;;;;5032593;28;20104;-70
2023/10/21 04:08:20;;;;;;;9.77;1.63;;;17.30;99.90;;;;;;5032032;28;20025;-70
2023/10/21 04:10:46;;;;;;;8.05;1.40;;;17.30;99.90;;;;;;5030802;28;20034;-69
2023/10/21 04:13:12;;;;;;;5.50;1.40;;;17.30;99.90;;;;;;5032767;28;20043;-70
2023/10/21 04:15:41;;;;;;;4.13;1.00;;;17.30;99.90;;;;;;5031989;28;20473;-70
2023/10/21 04:18:07;;;;;;;12.60;1.23;;;17.30;99.90;;;;;;5032651;28;20049;-69
2023/10/21 04:20:36;;;;;;;6.88;1.17;;;17.30;99.90;;;;;;5052021;28;20477;-69
2023/10/21 04:23:02;;;;;;;7.40;0.85;;;17.20;99.90;;;;;;5051683;28;20061;-70
2023/10/21 04:25:28;;;;;;;5.32;1.08;;;17.20;99.90;;;;;;5052399;28;20025;-71
2023/10/21 04:28:01;;;;;;;6.85;1.10;;;17.20;99.90;;;;;;5055354;28;20025;-69
2023/10/21 04:30:27;;;;;;;4.15;1.08;;;17.20;99.90;;;;;;5054899;28;20417;-69
2023/10/21 04:32:53;;;;;;;4.05;1.25;;;17.20;99.90;;;;;;5051797;28;20109;-70
2023/10/21 04:35:19;;;;;;;5.07;1.15;;;17.20;99.90;;;;;;5053758;28;20124;-70
2023/10/21 04:37:45;;;;;;;4.28;1.02;;;17.20;99.90;;;;;;5054925;28;20017;-69
2023/10/21 04:40:11;;;;;;;4.40;1.10;;;17.20;99.90;;;;;;5055088;28;20025;-69
2023/10/21 04:42:38;;;;;;;7.15;1.98;;;17.20;99.90;;;;;;5054999;28;20431;-70
2023/10/21 04:45:10;;;;;;;9.50;1.15;;;17.20;99.90;;;;;;5054853;28;20048;-70
2023/10/21 04:47:37;;;;;;;6.60;1.15;;;17.20;99.90;;;;;;5055179;28;20614;-72
2023/10/21 04:50:04;;;;;;;5.75;0.95;;;17.20;99.90;;;;;;5054578;28;20021;-71
2023/10/21 04:52:30;;;;;;;4.50;1.10;;;17.20;99.90;;;;;;5069643;28;20033;-71
2023/10/21 04:54:55;;;;;;;6.82;1.30;;;17.20;99.90;;;;;;5054954;28;20025;-71
2023/10/21 04:57:21;;;;;;;9.73;1.52;;;17.10;99.90;;;;;;5054979;28;20036;-70
2023/10/21 04:59:48;;;;;;;5.05;1.10;;;17.10;99.90;;;;;;5054554;28;20096;-70
2023/10/21 05:02:14;;;;;;;7.30;1.00;;;17.10;99.90;;;;;;5054828;28;20025;-71
2023/10/21 05:04:40;;;;;;;4.55;1.10;;;17.10;99.90;;;;;;5054445;28;20021;-69
2023/10/21 05:07:06;;;;;;;8.93;1.00;;;17.10;99.90;;;;;;5054197;28;20082;-69
2023/10/21 05:09:33;;;;;;;2.78;0.80;;;17.10;99.90;;;;;;5054660;28;20029;-71
2023/10/21 05:12:01;;;;;;;11.43;1.85;;;17.10;99.90;;;;;;5054406;28;20103;-70
2023/10/21 05:14:31;;;;;;;4.93;0.93;;;17.10;99.90;;;;;;5054271;28;20024;-70
2023/10/21 05:16:56;;;;;;;6.03;1.05;;;17.10;99.90;;;;;;5053347;28;20021;-70
2023/10/21 05:19:23;;;;;;;7.18;1.27;;;17.10;99.90;;;;;;5054585;28;20017;-70
2023/10/21 05:21:49;;;;;;;7.20;1.35;;;17.10;99.90;;;;;;5054340;28;20103;-69
2023/10/21 05:24:18;;;;;;;9.93;1.33;;;17.10;99.90;;;;;;5054488;28;20022;-70
2023/10/21 05:26:43;;;;;;;5.10;1.05;;;17.10;99.90;;;;;;5054615;28;20392;-69
2023/10/21 05:29:09;;;;;;;7.85;2.10;;;17.10;99.90;;;;;;5054428;28;20469;-70
2023/10/21 05:31:35;;;;;;;5.18;1.10;;;17.10;99.90;;;;;;5054318;28;20108;-70
2023/10/21 05:34:01;;;;;;;11.32;1.35;;;17.10;99.90;;;;;;5054127;28;20045;-70
2023/10/21 05:36:27;;;;;;;5.20;1.35;;;17.10;99.90;;;;;;5054192;28;20048;-69
2023/10/21 05:38:53;;;;;;;8.38;1.45;;;17.10;99.90;;;;;;5052438;28;20021;-69
2023/10/21 05:41:20;;;;;;;4.28;1.50;;;17.10;99.90;;;;;;5054497;28;20054;-70
2023/10/21 05:43:46;;;;;;;8.50;2.30;;;17.10;99.90;;;;;;5054382;28;20017;-70
2023/10/21 05:46:15;;;;;;;5.28;1.42;;;17.10;99.90;;;;;;5052440;28;20029;-70
2023/10/21 05:48:41;;;;;;;11.18;1.80;;;17.10;99.90;;;;;;5052741;28;20036;-69
2023/10/21 05:51:07;;;;;;;7.95;1.60;;;17.10;99.90;;;;;;5053899;28;20037;-69
2023/10/21 05:53:33;;;;;;;5.90;1.40;;;17.00;99.90;;;;;;5053639;28;20040;-69
2023/10/21 05:55:59;;;;;;;7.07;1.42;;;17.00;99.90;;;;;;5054013;28;20082;-70
2023/10/21 05:58:26;;;;;;;7.00;1.77;;;17.10;99.90;;;;;;5054091;28;20018;-69
2023/10/21 06:00:52;;;;;;;7.55;1.67;;;17.10;99.90;;;;;;5053572;28;20032;-70
2023/10/21 06:03:18;;;;;;;5.43;1.50;;;17.10;99.90;;;;;;5053746;28;20025;-69
2023/10/21 06:05:44;;;;;;;11.63;2.55;;;17.10;99.90;;;;;;5053709;28;20107;-70
2023/10/21 06:08:10;;;;;;;4.43;1.50;;;17.00;99.90;;;;;;5053877;28;20029;-69
2023/10/21 06:10:37;;;;;;;12.95;2.25;;;17.00;99.90;;;;;;5053840;28;20037;-70
2023/10/21 06:13:02;;;;;;;9.18;1.50;;;17.00;99.90;;;;;;5053766;28;20025;-70
2023/10/21 06:15:29;;;;;;;7.82;1.98;;;17.10;99.90;;;;;;5053483;28;20052;-69
2023/10/21 06:17:58;;;;;;;16.65;3.08;;;17.10;99.90;;;;;;5053306;28;20108;-69
2023/10/21 06:20:27;;;;;;;7.97;1.85;;;17.10;99.90;;;;;;5053479;28;20083;-70
2023/10/21 06:22:53;;;;;;;9.77;2.53;;;17.10;99.90;;;;;;5053466;28;20051;-70
2023/10/21 06:25:19;;;;;;;7.43;1.58;;;17.10;99.90;;;;;;5053392;28;20025;-71
2023/10/21 06:27:48;;;;;;;7.88;1.95;;;17.10;99.90;;;;;;5053505;28;20082;-70
2023/10/21 06:30:14;;;;;;;6.43;2.10;;;17.10;99.90;;;;;;5053337;28;20090;-70
2023/10/21 06:32:40;;;;;;;6.05;1.67;;;17.20;99.90;;;;;;5053427;28;20439;-70
2023/10/21 06:35:07;;;;;;;8.18;2.38;;;17.20;99.90;;;;;;5053253;28;20562;-69
2023/10/21 06:37:33;;;;;;;11.20;1.88;;;17.20;99.90;;;;;;5053284;28;20053;-71
2023/10/21 06:39:59;;;;;;;8.95;2.05;;;17.20;99.90;;;;;;5052767;28;20025;-71
2023/10/21 06:42:25;;;;;;;12.48;1.83;;;17.30;99.90;;;;;;5053125;28;20021;-71
2023/10/21 06:44:51;;;;;;;10.43;2.05;;;17.30;99.90;;;;;;5052674;28;20029;-70
2023/10/21 06:47:17;;;;;;;5.80;1.48;;;17.30;99.90;;;;;;5053208;28;20025;-71
2023/10/21 06:49:45;;;;;;;6.05;2.30;;;17.30;99.90;;;;;;5052314;28;20027;-70
2023/10/21 06:52:10;;;;;;;10.68;2.22;;;17.40;99.90;;;;;;5052734;28;20036;-71
2023/10/21 06:54:37;;;;;;;8.93;1.75;;;17.30;99.90;;;;;;5052764;28;20485;-71
2023/10/21 06:57:03;;;;;;;11.43;1.70;;;17.40;99.90;;;;;;5050834;28;20040;-71
2023/10/21 06:59:28;;;;;;;11.45;2.30;;;17.40;99.90;;;;;;5049982;28;20037;-71
2023/10/21 07:01:54;;;;;;;8.02;2.03;;;17.40;99.90;;;;;;5050524;28;20029;-71
2023/10/21 07:04:20;;;;;;;4.35;1.52;;;17.40;99.90;;;;;;5052392;28;20025;-71
2023/10/21 07:06:48;;;;;;;10.13;1.83;;;17.40;99.90;;;;;;5052745;28;20100;-72
2023/10/21 07:09:14;;;;;;;6.28;1.73;;;17.50;99.90;;;;;;5052535;28;20445;-73
2023/10/21 07:11:40;;;;;;;8.50;2.10;;;17.50;99.90;;;;;;5052546;28;20116;-70
2023/10/21 07:14:08;;;;;;;6.85;1.80;;;17.50;99.90;;;;;;5052420;28;20415;-71
2023/10/21 07:16:34;;;;;;;9.48;1.73;;;17.50;99.90;;;;;;5051284;28;20029;-72
2023/10/21 07:19:00;;;;;;;6.60;2.10;;;17.50;99.90;;;;;;5051619;28;20437;-71
2023/10/21 07:21:32;;;;;;;6.25;2.22;;;17.50;99.90;;;;;;5051987;28;20112;-71
2023/10/21 07:24:01;;;;;;;7.43;2.28;;;17.50;99.90;;;;;;5052750;28;20017;-71
2023/10/21 07:26:29;;;;;;;11.25;2.40;;;17.60;99.90;;;;;;5050859;28;20032;-71
2023/10/21 07:28:54;;;;;;;10.25;2.47;;;17.60;99.90;;;;;;5052597;28;20014;-71
2023/10/21 07:31:23;;;;;;;5.57;1.88;;;17.60;99.90;;;;;;5052246;28;20476;-70
2023/10/21 07:33:51;;;;;;;10.30;2.08;;;17.60;99.90;;;;;;5050719;28;20104;-68
2023/10/21 07:36:17;;;;;;;9.13;1.98;;;17.60;99.90;;;;;;5049086;28;20025;-68
2023/10/21 07:38:43;;;;;;;8.15;2.10;;;17.70;99.90;;;;;;5049130;28;20066;-69
2023/10/21 07:41:10;;;;;;;11.45;2.55;;;17.70;99.90;;;;;;5050734;28;20461;-69
2023/10/21 07:43:36;;;;;;;7.60;2.47;;;17.70;99.90;;;;;;5050810;28;20051;-69
2023/10/21 07:46:05;;;;;;;7.13;2.20;;;17.80;99.90;;;;;;5049648;28;20033;-68
2023/10/21 07:48:31;;;;;;;9.43;2.33;;;17.80;99.90;;;;;;5050450;28;20021;-74
2023/10/21 07:50:58;;;;;;;4.78;1.77;;;17.80;99.90;;;;;;5052016;28;20037;-73
2023/10/21 07:53:24;;;;;;;7.65;1.75;;;17.90;99.90;;;;;;5051797;28;20100;-74
2023/10/21 07:55:50;;;;;;;8.52;1.80;;;17.90;99.90;;;;;;5052414;28;20580;-74
2023/10/21 07:58:16;;;;;;;7.78;2.10;;;18.00;99.90;;;;;;5051625;28;20035;-74
2023/10/21 08:00:43;;;;;;;8.30;2.00;;;18.00;99.90;;;;;;5054815;28;20166;-74
2023/10/21 08:03:08;;;;;;;8.95;2.40;;;18.10;99.90;;;;;;5056201;28;20377;-74
2023/10/21 08:05:34;;;;;;;9.05;2.28;;;18.10;99.90;;;;;;5056073;28;20465;-74
2023/10/21 08:08:00;;;;;;;6.03;2.13;;;18.10;99.90;;;;;;5056019;28;20059;-74
2023/10/21 08:10:26;;;;;;;9.32;2.97;;;18.20;99.90;;;;;;5056168;28;20047;-74
2023/10/21 08:12:51;;;;;;;6.53;2.45;;;18.20;99.90;;;;;;5056134;28;20021;-74
2023/10/21 08:15:17;;;;;;;9.73;2.95;;;18.20;99.90;;;;;;5055857;28;20113;-74
2023/10/21 08:17:43;;;;;;;13.20;2.55;;;18.20;99.90;;;;;;5055937;28;20377;-74
2023/10/21 08:20:09;;;;;;;9.00;2.55;;;18.20;99.90;;;;;;5055938;28;20029;-75
2023/10/21 08:22:35;;;;;;;6.18;2.13;;;18.30;99.90;;;;;;5055808;28;20025;-74
2023/10/21 08:25:01;;;;;;;10.32;2.10;;;18.30;99.90;;;;;;5055723;28;20029;-75
2023/10/21 08:27:28;;;;;;;8.80;2.63;;;18.30;99.90;;;;;;5056009;28;20461;-74
2023/10/21 08:29:54;;;;;;;11.07;1.98;;;18.40;99.90;;;;;;5055811;28;20025;-75
2023/10/21 08:32:20;;;;;;;13.50;2.00;;;18.40;99.90;;;;;;5055772;28;20033;-74
2023/10/21 08:34:46;;;;;;;10.70;1.67;;;18.40;99.90;;;;;;5055514;28;20487;-74
2023/10/21 08:37:15;;;;;;;9.95;1.98;;;18.50;99.90;;;;;;5055502;28;20116;-74
2023/10/21 08:39:43;;;;;;;8.57;1.60;;;18.50;99.90;;;;;;5055467;28;20385;-73
2023/10/21 08:42:09;;;;;;;11.52;1.70;;;18.60;99.90;;;;;;5055383;28;20017;-75
2023/10/21 08:44:37;;;;;;;6.93;1.88;;;18.60;99.90;;;;;;5055748;28;20029;-73
2023/10/21 08:47:05;;;;;;;6.10;1.85;;;18.70;99.90;;;;;;5055872;28;20029;-74
2023/10/21 08:49:32;;;;;;;7.75;1.75;;;18.70;99.90;;;;;;5055541;28;20036;-74
2023/10/21 08:52:01;;;;;;;7.13;1.80;;;18.80;99.90;;;;;;5055574;28;20033;-75
2023/10/21 08:54:30;;;;;;;9.40;1.67;;;18.80;99.90;;;;;;5055502;28;20063;-74
2023/10/21 08:56:57;;;;;;;8.80;2.13;;;18.80;99.90;;;;;;5055355;28;20037;-74
2023/10/21 08:59:24;;;;;;;11.05;1.65;;;18.90;99.90;;;;;;5054026;28;20388;-74
2023/10/21 09:01:50;;;;;;;5.18;1.40;;;18.90;99.90;;;;;;5055221;28;20067;-74
2023/10/21 09:04:18;;;;;;;8.60;1.45;;;18.90;99.90;;;;;;5055165;28;20052;-74
2023/10/21 09:07:00;;;;;;;8.85;1.88;;;18.90;99.90;;;;;;5055136;28;20025;-74
2023/10/21 09:09:29;;;;;;;8.33;1.40;;;19.00;99.90;;;;;;5055277;28;20024;-75
2023/10/21 09:12:13;;;;;;;5.25;1.75;;;19.10;99.90;;;;;;5054034;28;20297;-73
2023/10/21 09:14:56;;;;;;;11.32;1.58;;;19.10;99.90;;;;;;5054822;28;20446;-75
2023/10/21 09:17:40;;;;;;;6.55;1.60;;;19.10;99.90;;;;;;5054679;28;20389;-73
2023/10/21 09:20:13;;;;;;;10.13;1.52;;;19.20;99.90;;;;;;5054064;28;20104;-73
2023/10/21 09:22:41;;;;;;;5.15;1.33;;;19.20;99.90;;;;;;5054741;28;20021;-75
2023/10/21 09:25:21;;;;;;;9.73;1.67;;;19.20;99.90;;;;;;5054575;28;20033;-74
2023/10/21 09:27:55;;;;;;;9.63;1.55;;;19.30;99.90;;;;;;5054748;28;20110;-74
2023/10/21 09:30:24;;;;;;;5.53;1.33;;;19.30;99.90;;;;;;5054510;28;20037;-74
2023/10/21 09:32:50;;;;;;;13.70;2.38;;;19.40;99.90;;;;;;5054226;28;20048;-74
2023/10/21 09:35:30;;;;;;;10.93;2.72;;;19.50;99.90;;;;;;5053997;28;20052;-74
2023/10/21 09:37:57;;;;;;;9.52;1.65;;;19.60;99.90;;;;;;5054188;28;20504;-75
2023/10/21 09:40:26;;;;;;;7.30;1.30;;;19.70;99.90;;;;;;5054070;28;20028;-74
2023/10/21 09:42:52;;;;;;;11.73;1.65;;;19.70;99.90;;;;;;5054063;28;20061;-73
2023/10/21 09:45:20;;;;;;;8.75;1.70;;;19.80;99.90;;;;;;5053754;28;20021;-75
2023/10/21 09:47:46;;;;;;;6.25;1.42;;;19.80;99.90;;;;;;5054133;28;20023;-74
2023/10/21 09:50:14;;;;;;;8.27;1.50;;;19.90;99.90;;;;;;5054255;28;20055;-74
2023/10/21 09:52:54;;;;;;;11.25;1.92;;;20.00;99.90;;;;;;5054127;28;20024;-74
2023/10/21 09:55:24;;;;;;;8.45;1.80;;;20.20;99.90;;;;;;5053836;28;20104;-74
2023/10/21 09:57:53;;;;;;;11.85;2.13;;;20.30;99.90;;;;;;5053916;28;20444;-74
2023/10/21 10:00:19;;;;;;;9.20;1.58;;;20.30;99.90;;;;;;5053912;28;20079;-74
2023/10/21 10:02:49;;;;;;;8.25;2.30;;;20.30;99.90;;;;;;5053633;28;20021;-74
2023/10/21 10:05:20;;;;;;;9.18;1.98;;;20.30;99.90;;;;;;5054023;28;20025;-74
2023/10/21 10:07:47;;;;;;;7.22;1.38;;;20.40;99.90;;;;;;5053900;28;20029;-74
2023/10/21 10:10:15;;;;;;;9.32;2.03;;;20.30;99.90;;;;;;5053156;28;20100;-74
2023/10/21 10:12:44;;;;;;;13.55;2.75;;;20.40;99.90;;;;;;5053305;28;20021;-74
2023/10/21 10:15:29;;;;;;;8.80;1.80;;;20.30;99.90;;;;;;5053485;28;20025;-74
2023/10/21 10:17:55;;;;;;;8.75;2.00;;;20.30;99.90;;;;;;5053309;28;20503;-74
2023/10/21 10:20:27;;;;;;;6.18;1.50;;;20.30;99.90;;;;;;5053478;28;20025;-74
2023/10/21 10:23:07;;;;;;;;;;;20.30;99.90;;;;;;5053656;28;20051;-75
2023/10/21 10:25:40;;;;;;;6.80;1.85;;;20.30;99.90;;;;;;5053839;28;19905;-74
2023/10/21 10:28:19;;;;;;;7.78;1.48;;;20.30;99.90;;;;;;5053567;28;20028;-74
2023/10/21 10:30:49;;;;;;;6.65;1.90;;;20.30;99.90;;;;;;5053417;28;20032;-73
2023/10/21 10:33:22;;;;;;;6.97;1.67;;;20.30;99.90;;;;;;5053534;28;20073;-75
2023/10/21 10:35:51;;;;;;;6.65;1.55;;;20.30;99.90;;;;;;5053768;28;20481;-73
2023/10/21 10:38:31;;;;;;;9.55;2.80;;;20.30;99.90;;;;;;5051761;28;20124;-74
2023/10/21 10:41:23;;;;;;;9.65;1.70;;;20.30;99.90;;;;;;5050428;28;20063;-75
2023/10/21 10:43:55;;;;;;;13.77;1.95;;;20.40;99.90;;;;;;5052057;28;20033;-75
2023/10/21 10:46:23;;;;;;;8.55;1.60;;;20.30;99.90;;;;;;5053354;28;20043;-74
2023/10/21 10:48:52;;;;;;;6.53;1.90;;;20.30;99.90;;;;;;5053294;28;20048;-74
2023/10/21 10:51:21;;;;;;;9.30;2.10;;;20.30;99.90;;;;;;5053219;28;20037;-73
2023/10/21 10:53:59;;;;;;;9.02;1.63;;;20.30;99.90;;;;;;5053124;28;20143;-74
2023/10/21 10:56:39;;;;;;;8.75;1.55;;;20.30;99.90;;;;;;5053422;28;20470;-73
2023/10/21 10:59:17;;;;;;;12.48;2.28;;;20.20;99.90;;;;;;5052678;28;20039;-74
2023/10/21 11:01:44;;;;;;;7.78;1.52;;;20.30;99.90;;;;;;5053183;28;20109;-70
2023/10/21 11:04:10;;;;;;;8.35;1.70;;;20.30;99.90;;;;;;5050261;28;20480;-74
2023/10/21 11:06:39;;;;;;;8.13;1.65;;;20.30;99.90;;;;;;5050307;28;20098;-74
2023/10/21 11:09:30;;;;;;;11.52;1.85;;;20.30;99.90;;;;;;5050249;28;20116;-73
2023/10/21 11:12:01;;;;;;;10.82;1.73;;;20.30;99.90;;;;;;5052241;28;20094;-73
2023/10/21 11:14:27;;;;;;;13.18;1.77;;;20.40;99.90;;;;;;5049491;28;20615;-71
2023/10/21 11:16:53;;;;;;;8.63;1.80;;;20.40;99.90;;;;;;5050153;28;20036;-75
2023/10/21 11:19:19;;;;;;;11.75;2.22;;;20.50;99.90;;;;;;5050570;28;20182;-70
2023/10/21 11:21:51;;;;;;;11.27;1.92;;;20.60;99.90;;;;;;5052355;28;20025;-69
2023/10/21 11:24:19;;;;;;;7.82;2.28;;;20.60;99.90;;;;;;5052821;28;20021;-75
2023/10/21 11:26:45;;;;;;;8.75;1.42;;;20.70;99.90;;;;;;5052554;28;20053;-75
2023/10/21 11:29:11;;;;;;;9.70;1.63;;;20.70;99.90;;;;;;5052396;28;20100;-74
2023/10/21 11:31:37;;;;;;;8.48;1.88;;;20.70;99.90;;;;;;5052213;28;20507;-74
2023/10/21 11:34:14;;;;;;;6.72;1.85;;;20.70;99.90;;;;;;5052324;28;20052;-74
2023/10/21 11:36:46;;;;;;;7.50;1.45;;;20.80;99.90;;;;;;5056120;28;20068;-74
2023/10/21 11:39:23;;;;;;;12.38;2.10;;;20.80;99.90;;;;;;5056779;28;20397;-69
2023/10/21 11:41:52;;;;;;;10.98;2.08;;;20.80;99.90;;;;;;5054151;28;20044;-74
2023/10/21 11:44:47;;;;;;;9.75;2.03;;;20.90;99.90;;;;;;5053763;28;20032;-73
2023/10/21 11:47:13;;;;;;;7.88;1.73;;;20.80;99.90;;;;;;5052788;28;20454;-74
2023/10/21 11:49:38;;;;;;;12.63;1.83;;;20.80;99.90;;;;;;5056704;28;20052;-75
2023/10/21 11:52:09;;;;;;;11.57;1.70;;;20.80;99.90;;;;;;5056258;28;20033;-74
2023/10/21 11:54:40;;;;;;;8.23;1.90;;;20.80;99.90;;;;;;5056366;28;20120;-77
2023/10/21 12:14:43;;;;;;;5.75;1.60;;;20.60;97.60;;;;;;5055963;28;20060;-69
2023/10/21 12:39:37;;;;;;;7.75;2.25;;;20.00;98.70;;;;;;5053119;28;20037;-69
2023/10/21 12:41:52;;;;;;;3.85;1.00;;;20.00;98.80;;;;;;5053235;28;20382;-69
2023/10/21 12:44:26;;;;;;;7.68;1.27;;;20.00;98.90;;;;;;5055492;28;20017;-70
2023/10/21 12:47:00;;;;;;;4.60;1.00;;;20.00;98.00;;;;;;5054432;28;20454;-69
2023/10/21 12:49:28;;;;;;;6.75;1.30;;;20.00;98.20;;;;;;5055276;28;20029;-69
2023/10/21 12:51:58;;;;;;;4.55;1.20;;;20.00;98.60;;;;;;5055667;28;20028;-68
2023/10/21 12:54:24;;;;;;;5.15;1.20;;;20.10;98.50;;;;;;5055136;28;20020;-69
2023/10/21 12:56:50;;;;;;;8.88;1.40;;;20.00;97.90;;;;;;5055446;28;20393;-68
2023/10/21 12:59:16;;;;;;;6.30;1.20;;;20.00;98.00;;;;;;5055192;28;20104;-69
2023/10/21 13:01:52;;;;;;;5.43;1.38;;;20.00;98.30;;;;;;5054986;28;20128;-69
2023/10/21 13:04:18;;;;;;;4.30;1.17;;;20.10;98.80;;;;;;5054689;28;20136;-69
2023/10/21 13:06:44;;;;;;;5.65;1.30;;;20.10;98.50;;;;;;5054780;28;20024;-68
2023/10/21 13:09:29;;;;;;;6.68;1.70;;;20.10;98.80;;;;;;5055122;28;20020;-68
2023/10/21 13:11:55;;;;;;;4.25;1.20;;;20.10;98.70;;;;;;5055085;28;20342;-68
2023/10/21 13:14:21;;;;;;;5.60;1.10;;;20.10;98.90;;;;;;5054877;28;20135;-68
2023/10/21 13:16:52;;;;;;;6.78;1.20;;;20.10;98.90;;;;;;5054893;28;20048;-68
2023/10/21 13:19:18;;;;;;;3.67;1.17;;;20.20;99.10;;;;;;5054837;28;20479;-68
2023/10/21 13:21:44;;;;;;;5.60;1.30;;;20.20;99.10;;;;;;5055019;28;20056;-68
2023/10/21 13:24:10;;;;;;;4.82;1.02;;;20.20;99.20;;;;;;5054771;28;20025;-68
2023/10/21 13:26:37;;;;;;;5.28;1.73;;;20.20;99.20;;;;;;5054776;28;20029;-68
2023/10/21 13:29:04;;;;;;;6.22;1.13;;;20.20;99.10;;;;;;5054665;28;20017;-68
2023/10/21 13:31:31;;;;;;;6.88;1.60;;;20.20;99.10;;;;;;5054462;28;20461;-68